sensor_id;sensor_type;location;lat;lon;timestamp;P1;durP1;ratioP1;P2;durP2;ratioP2
28158;SDS011;15447;50.828;4.406;2023-10-08T05:30:46;11.80;;;4.75;;
28158;SDS011;15447;50.828;4.406;2023-10-08T05:33:20;10.45;;;4.07;;
28158;SDS011;15447;50.828;4.406;2023-10-08T05:35:50;10.90;;;4.63;;
28158;SDS011;15447;50.828;4.406;2023-10-08T05:38:20;10.15;;;4.22;;
28158;SDS011;15447;50.828;4.406;2023-10-08T05:40:55;9.27;;;4.50;;
28158;SDS011;15447;50.828;4.406;2023-10-08T05:43:28;8.48;;;4.43;;
28158;SDS011;15447;50.828;4.406;2023-10-08T05:46:04;13.65;;;4.35;;
28158;SDS011;15447;50.828;4.406;2023-10-08T05:48:57;9.57;;;4.05;;
28158;SDS011;15447;50.828;4.406;2023-10-08T05:51:27;10.18;;;4.35;;
28158;SDS011;15447;50.828;4.406;2023-10-08T05:54:20;11.23;;;4.45;;
28158;SDS011;15447;50.828;4.406;2023-10-08T05:59:39;11.13;;;4.28;;
28158;SDS011;15447;50.828;4.406;2023-10-08T06:05:01;9.95;;;4.65;;
28158;SDS011;15447;50.828;4.406;2023-10-08T06:07:40;12.35;;;4.18;;
28158;SDS011;15447;50.828;4.406;2023-10-08T06:10:16;10.02;;;4.95;;
28158;SDS011;15447;50.828;4.406;2023-10-08T06:13:04;10.95;;;4.65;;
28158;SDS011;15447;50.828;4.406;2023-10-08T06:15:47;11.50;;;4.55;;
28158;SDS011;15447;50.828;4.406;2023-10-08T06:18:55;9.43;;;4.82;;
28158;SDS011;15447;50.828;4.406;2023-10-08T06:21:24;11.93;;;4.60;;
28158;SDS011;15447;50.828;4.406;2023-10-08T06:23:54;9.45;;;4.43;;
28158;SDS011;15447;50.828;4.406;2023-10-08T06:26:21;11.35;;;5.03;;
28158;SDS011;15447;50.828;4.406;2023-10-08T06:28:49;12.32;;;4.75;;
28158;SDS011;15447;50.828;4.406;2023-10-08T06:31:14;12.23;;;5.22;;
28158;SDS011;15447;50.828;4.406;2023-10-08T06:33:49;12.30;;;5.05;;
28158;SDS011;15447;50.828;4.406;2023-10-08T06:36:18;14.73;;;4.70;;
28158;SDS011;15447;50.828;4.406;2023-10-08T06:38:49;10.75;;;4.70;;
28158;SDS011;15447;50.828;4.406;2023-10-08T06:41:15;8.55;;;4.05;;
28158;SDS011;15447;50.828;4.406;2023-10-08T06:43:49;10.23;;;4.35;;
28158;SDS011;15447;50.828;4.406;2023-10-08T06:46:16;13.80;;;4.95;;
28158;SDS011;15447;50.828;4.406;2023-10-08T06:48:47;8.70;;;4.68;;
28158;SDS011;15447;50.828;4.406;2023-10-08T06:51:14;11.75;;;4.70;;
28158;SDS011;15447;50.828;4.406;2023-10-08T06:53:43;10.05;;;4.55;;
28158;SDS011;15447;50.828;4.406;2023-10-08T06:56:10;11.18;;;4.68;;
28158;SDS011;15447;50.828;4.406;2023-10-08T06:58:37;8.07;;;4.35;;
28158;SDS011;15447;50.828;4.406;2023-10-08T07:01:04;8.02;;;4.00;;
28158;SDS011;15447;50.828;4.406;2023-10-08T07:03:30;8.32;;;4.40;;
28158;SDS011;15447;50.828;4.406;2023-10-08T07:05:58;9.65;;;4.20;;
28158;SDS011;15447;50.828;4.406;2023-10-08T07:08:25;14.00;;;4.35;;
28158;SDS011;15447;50.828;4.406;2023-10-08T07:10:56;10.98;;;4.50;;
28158;SDS011;15447;50.828;4.406;2023-10-08T07:13:24;12.45;;;4.32;;
28158;SDS011;15447;50.828;4.406;2023-10-08T07:15:50;9.52;;;3.83;;
28158;SDS011;15447;50.828;4.406;2023-10-08T07:18:17;10.15;;;4.10;;
28158;SDS011;15447;50.828;4.406;2023-10-08T07:20:50;13.90;;;4.40;;
28158;SDS011;15447;50.828;4.406;2023-10-08T07:23:21;8.82;;;4.20;;
28158;SDS011;15447;50.828;4.406;2023-10-08T07:25:55;8.35;;;3.92;;
28158;SDS011;15447;50.828;4.406;2023-10-08T07:28:43;10.57;;;4.97;;
28158;SDS011;15447;50.828;4.406;2023-10-08T07:31:15;14.40;;;4.55;;
28158;SDS011;15447;50.828;4.406;2023-10-08T07:33:49;10.30;;;3.92;;
28158;SDS011;15447;50.828;4.406;2023-10-08T07:36:23;8.88;;;4.53;;
28158;SDS011;15447;50.828;4.406;2023-10-08T07:38:54;14.93;;;4.25;;
28158;SDS011;15447;50.828;4.406;2023-10-08T07:41:20;12.32;;;4.28;;
28158;SDS011;15447;50.828;4.406;2023-10-08T07:43:54;9.15;;;4.40;;
28158;SDS011;15447;50.828;4.406;2023-10-08T07:46:26;9.23;;;4.27;;
28158;SDS011;15447;50.828;4.406;2023-10-08T07:48:55;13.38;;;4.82;;
28158;SDS011;15447;50.828;4.406;2023-10-08T07:51:24;13.00;;;5.40;;
28158;SDS011;15447;50.828;4.406;2023-10-08T07:53:53;10.52;;;4.28;;
28158;SDS011;15447;50.828;4.406;2023-10-08T07:56:22;9.55;;;4.10;;
28158;SDS011;15447;50.828;4.406;2023-10-08T07:59:06;11.23;;;4.15;;
28158;SDS011;15447;50.828;4.406;2023-10-08T08:01:38;8.43;;;4.40;;
28158;SDS011;15447;50.828;4.406;2023-10-08T08:04:05;12.38;;;4.30;;
28158;SDS011;15447;50.828;4.406;2023-10-08T08:06:35;8.70;;;4.70;;
28158;SDS011;15447;50.828;4.406;2023-10-08T08:09:09;13.93;;;4.75;;
28158;SDS011;15447;50.828;4.406;2023-10-08T08:11:47;10.25;;;5.03;;
28158;SDS011;15447;50.828;4.406;2023-10-08T08:14:22;10.07;;;4.80;;
28158;SDS011;15447;50.828;4.406;2023-10-08T08:16:56;9.27;;;4.50;;
28158;SDS011;15447;50.828;4.406;2023-10-08T08:19:41;9.07;;;4.47;;
28158;SDS011;15447;50.828;4.406;2023-10-08T08:22:42;9.95;;;4.07;;
28158;SDS011;15447;50.828;4.406;2023-10-08T08:25:14;10.02;;;5.38;;
28158;SDS011;15447;50.828;4.406;2023-10-08T08:27:59;9.90;;;4.20;;
28158;SDS011;15447;50.828;4.406;2023-10-08T08:30:25;9.00;;;4.28;;
28158;SDS011;15447;50.828;4.406;2023-10-08T08:32:51;15.82;;;5.28;;
28158;SDS011;15447;50.828;4.406;2023-10-08T08:35:19;11.35;;;4.07;;
28158;SDS011;15447;50.828;4.406;2023-10-08T08:37:45;11.05;;;4.47;;
28158;SDS011;15447;50.828;4.406;2023-10-08T08:40:33;10.43;;;5.13;;
28158;SDS011;15447;50.828;4.406;2023-10-08T08:43:10;10.68;;;4.70;;
28158;SDS011;15447;50.828;4.406;2023-10-08T08:45:38;10.25;;;4.25;;
28158;SDS011;15447;50.828;4.406;2023-10-08T08:48:11;9.10;;;4.63;;
28158;SDS011;15447;50.828;4.406;2023-10-08T08:50:55;13.68;;;5.25;;
28158;SDS011;15447;50.828;4.406;2023-10-08T08:56:25;9.45;;;4.72;;
28158;SDS011;15447;50.828;4.406;2023-10-08T08:59:04;17.17;;;6.47;;
28158;SDS011;15447;50.828;4.406;2023-10-08T09:01:45;44.75;;;20.65;;
28158;SDS011;15447;50.828;4.406;2023-10-08T09:04:12;16.08;;;5.47;;
28158;SDS011;15447;50.828;4.406;2023-10-08T09:06:50;15.77;;;4.80;;
28158;SDS011;15447;50.828;4.406;2023-10-08T09:09:41;13.27;;;4.90;;
28158;SDS011;15447;50.828;4.406;2023-10-08T09:12:15;9.98;;;4.97;;
28158;SDS011;15447;50.828;4.406;2023-10-08T09:15:03;20.42;;;9.68;;
28158;SDS011;15447;50.828;4.406;2023-10-08T09:17:34;17.75;;;7.47;;
28158;SDS011;15447;50.828;4.406;2023-10-08T09:23:26;11.02;;;5.35;;
28158;SDS011;15447;50.828;4.406;2023-10-08T09:25:52;12.85;;;5.55;;
28158;SDS011;15447;50.828;4.406;2023-10-08T09:28:27;9.88;;;4.90;;
28158;SDS011;15447;50.828;4.406;2023-10-08T09:31:04;10.05;;;4.88;;
28158;SDS011;15447;50.828;4.406;2023-10-08T09:33:33;13.75;;;5.18;;
28158;SDS011;15447;50.828;4.406;2023-10-08T09:35:58;10.63;;;4.93;;
28158;SDS011;15447;50.828;4.406;2023-10-08T09:38:30;13.25;;;5.05;;
28158;SDS011;15447;50.828;4.406;2023-10-08T09:40:58;14.30;;;5.32;;
28158;SDS011;15447;50.828;4.406;2023-10-08T09:43:28;13.32;;;5.20;;
28158;SDS011;15447;50.828;4.406;2023-10-08T09:46:03;11.55;;;4.93;;
28158;SDS011;15447;50.828;4.406;2023-10-08T09:48:46;10.38;;;4.82;;
28158;SDS011;15447;50.828;4.406;2023-10-08T09:51:18;14.20;;;5.60;;
28158;SDS011;15447;50.828;4.406;2023-10-08T09:53:51;10.55;;;4.75;;
28158;SDS011;15447;50.828;4.406;2023-10-08T09:56:54;16.08;;;4.80;;
28158;SDS011;15447;50.828;4.406;2023-10-08T10:01:54;11.02;;;4.85;;
28158;SDS011;15447;50.828;4.406;2023-10-08T10:04:24;12.40;;;5.32;;
28158;SDS011;15447;50.828;4.406;2023-10-08T10:06:50;15.18;;;5.03;;
28158;SDS011;15447;50.828;4.406;2023-10-08T10:09:22;10.68;;;5.20;;
28158;SDS011;15447;50.828;4.406;2023-10-08T10:11:59;13.60;;;4.75;;
28158;SDS011;15447;50.828;4.406;2023-10-08T10:14:41;12.82;;;5.20;;
28158;SDS011;15447;50.828;4.406;2023-10-08T10:20:12;12.25;;;5.18;;
28158;SDS011;15447;50.828;4.406;2023-10-08T10:22:41;13.10;;;5.50;;
28158;SDS011;15447;50.828;4.406;2023-10-08T10:25:11;11.52;;;5.13;;
28158;SDS011;15447;50.828;4.406;2023-10-08T10:30:27;17.67;;;6.97;;
28158;SDS011;15447;50.828;4.406;2023-10-08T10:32:53;9.23;;;5.00;;
28158;SDS011;15447;50.828;4.406;2023-10-08T10:35:38;9.77;;;4.97;;
28158;SDS011;15447;50.828;4.406;2023-10-08T10:41:58;11.63;;;5.38;;
28158;SDS011;15447;50.828;4.406;2023-10-08T10:44:33;11.95;;;4.85;;
28158;SDS011;15447;50.828;4.406;2023-10-08T10:47:14;11.27;;;5.10;;
28158;SDS011;15447;50.828;4.406;2023-10-08T10:49:50;11.68;;;4.43;;
28158;SDS011;15447;50.828;4.406;2023-10-08T10:53:24;14.88;;;4.78;;
28158;SDS011;15447;50.828;4.406;2023-10-08T10:55:53;13.83;;;5.00;;
28158;SDS011;15447;50.828;4.406;2023-10-08T10:58:28;11.02;;;5.28;;
28158;SDS011;15447;50.828;4.406;2023-10-08T11:01:03;13.13;;;5.13;;
28158;SDS011;15447;50.828;4.406;2023-10-08T11:03:56;12.20;;;4.82;;
28158;SDS011;15447;50.828;4.406;2023-10-08T11:06:26;14.48;;;5.60;;
28158;SDS011;15447;50.828;4.406;2023-10-08T11:08:53;10.70;;;5.22;;
28158;SDS011;15447;50.828;4.406;2023-10-08T11:11:19;16.23;;;5.57;;
28158;SDS011;15447;50.828;4.406;2023-10-08T11:13:58;13.15;;;6.47;;
28158;SDS011;15447;50.828;4.406;2023-10-08T11:16:26;10.98;;;5.70;;
28158;SDS011;15447;50.828;4.406;2023-10-08T11:18:53;12.00;;;6.03;;
28158;SDS011;15447;50.828;4.406;2023-10-08T11:21:25;9.85;;;5.07;;
28158;SDS011;15447;50.828;4.406;2023-10-08T11:23:56;16.35;;;6.03;;
28158;SDS011;15447;50.828;4.406;2023-10-08T11:26:24;12.95;;;5.03;;
28158;SDS011;15447;50.828;4.406;2023-10-08T11:29:00;11.90;;;5.47;;
28158;SDS011;15447;50.828;4.406;2023-10-08T11:31:28;11.18;;;5.15;;
28158;SDS011;15447;50.828;4.406;2023-10-08T11:34:03;16.77;;;7.85;;
28158;SDS011;15447;50.828;4.406;2023-10-08T11:36:38;14.27;;;6.90;;
28158;SDS011;15447;50.828;4.406;2023-10-08T11:39:18;16.70;;;6.97;;
28158;SDS011;15447;50.828;4.406;2023-10-08T11:41:59;10.48;;;5.72;;
28158;SDS011;15447;50.828;4.406;2023-10-08T11:44:47;17.73;;;6.88;;
28158;SDS011;15447;50.828;4.406;2023-10-08T11:47:17;13.85;;;5.90;;
28158;SDS011;15447;50.828;4.406;2023-10-08T11:49:46;13.85;;;6.13;;
28158;SDS011;15447;50.828;4.406;2023-10-08T11:52:19;12.77;;;6.20;;
28158;SDS011;15447;50.828;4.406;2023-10-08T11:54:48;13.73;;;6.20;;
28158;SDS011;15447;50.828;4.406;2023-10-08T11:57:17;13.95;;;6.45;;
28158;SDS011;15447;50.828;4.406;2023-10-08T11:59:46;11.68;;;5.30;;
28158;SDS011;15447;50.828;4.406;2023-10-08T12:02:12;12.65;;;5.40;;
28158;SDS011;15447;50.828;4.406;2023-10-08T12:04:41;9.75;;;5.10;;
28158;SDS011;15447;50.828;4.406;2023-10-08T12:07:09;9.00;;;5.13;;
28158;SDS011;15447;50.828;4.406;2023-10-08T12:09:35;10.52;;;5.38;;
28158;SDS011;15447;50.828;4.406;2023-10-08T12:12:05;13.30;;;5.40;;
28158;SDS011;15447;50.828;4.406;2023-10-08T12:14:40;11.52;;;5.68;;
28158;SDS011;15447;50.828;4.406;2023-10-08T12:17:09;9.98;;;5.55;;
28158;SDS011;15447;50.828;4.406;2023-10-08T12:19:38;13.55;;;5.65;;
28158;SDS011;15447;50.828;4.406;2023-10-08T12:22:07;12.27;;;5.65;;
28158;SDS011;15447;50.828;4.406;2023-10-08T12:24:33;14.45;;;5.88;;
28158;SDS011;15447;50.828;4.406;2023-10-08T12:26:59;11.20;;;5.18;;
28158;SDS011;15447;50.828;4.406;2023-10-08T12:29:28;14.82;;;6.05;;
28158;SDS011;15447;50.828;4.406;2023-10-08T12:31:53;10.43;;;5.25;;
28158;SDS011;15447;50.828;4.406;2023-10-08T12:34:19;12.70;;;5.30;;
28158;SDS011;15447;50.828;4.406;2023-10-08T12:36:47;10.05;;;5.63;;
28158;SDS011;15447;50.828;4.406;2023-10-08T12:39:13;10.40;;;5.78;;
28158;SDS011;15447;50.828;4.406;2023-10-08T12:41:42;10.30;;;5.60;;
28158;SDS011;15447;50.828;4.406;2023-10-08T12:44:13;13.45;;;5.35;;
28158;SDS011;15447;50.828;4.406;2023-10-08T12:46:40;10.25;;;5.72;;
28158;SDS011;15447;50.828;4.406;2023-10-08T12:49:09;10.13;;;5.70;;
28158;SDS011;15447;50.828;4.406;2023-10-08T12:51:34;9.60;;;5.35;;
28158;SDS011;15447;50.828;4.406;2023-10-08T12:54:06;13.53;;;5.43;;
28158;SDS011;15447;50.828;4.406;2023-10-08T12:56:35;11.57;;;5.47;;
28158;SDS011;15447;50.828;4.406;2023-10-08T12:59:09;12.18;;;5.38;;
28158;SDS011;15447;50.828;4.406;2023-10-08T13:01:45;11.55;;;6.15;;
28158;SDS011;15447;50.828;4.406;2023-10-08T13:04:15;13.27;;;5.50;;
28158;SDS011;15447;50.828;4.406;2023-10-08T13:06:52;14.32;;;6.57;;
28158;SDS011;15447;50.828;4.406;2023-10-08T13:09:21;10.70;;;5.80;;
28158;SDS011;15447;50.828;4.406;2023-10-08T13:11:48;12.80;;;5.80;;
28158;SDS011;15447;50.828;4.406;2023-10-08T13:14:16;9.23;;;5.75;;
28158;SDS011;15447;50.828;4.406;2023-10-08T13:16:42;12.23;;;5.57;;
28158;SDS011;15447;50.828;4.406;2023-10-08T13:19:09;13.15;;;5.88;;
28158;SDS011;15447;50.828;4.406;2023-10-08T13:21:35;10.02;;;5.35;;
28158;SDS011;15447;50.828;4.406;2023-10-08T13:24:02;11.90;;;5.93;;
28158;SDS011;15447;50.828;4.406;2023-10-08T13:26:30;11.73;;;5.30;;
28158;SDS011;15447;50.828;4.406;2023-10-08T13:28:59;10.32;;;5.13;;
28158;SDS011;15447;50.828;4.406;2023-10-08T13:31:25;9.25;;;5.40;;
28158;SDS011;15447;50.828;4.406;2023-10-08T13:33:52;11.18;;;5.80;;
28158;SDS011;15447;50.828;4.406;2023-10-08T13:36:21;11.07;;;5.40;;
28158;SDS011;15447;50.828;4.406;2023-10-08T13:38:47;11.35;;;5.30;;
28158;SDS011;15447;50.828;4.406;2023-10-08T13:41:12;13.00;;;5.68;;
28158;SDS011;15447;50.828;4.406;2023-10-08T13:43:42;11.70;;;5.60;;
28158;SDS011;15447;50.828;4.406;2023-10-08T13:46:15;9.82;;;4.97;;
28158;SDS011;15447;50.828;4.406;2023-10-08T13:48:44;10.00;;;5.97;;
28158;SDS011;15447;50.828;4.406;2023-10-08T13:51:13;9.20;;;5.97;;
28158;SDS011;15447;50.828;4.406;2023-10-08T13:53:42;14.45;;;5.90;;
28158;SDS011;15447;50.828;4.406;2023-10-08T13:56:17;9.95;;;5.75;;
28158;SDS011;15447;50.828;4.406;2023-10-08T13:58:45;11.55;;;5.80;;
28158;SDS011;15447;50.828;4.406;2023-10-08T14:01:14;11.25;;;5.38;;
28158;SDS011;15447;50.828;4.406;2023-10-08T14:03:49;10.70;;;5.55;;
28158;SDS011;15447;50.828;4.406;2023-10-08T14:08:47;14.95;;;6.07;;
28158;SDS011;15447;50.828;4.406;2023-10-08T14:13:48;10.38;;;5.45;;
28158;SDS011;15447;50.828;4.406;2023-10-08T14:16:18;12.70;;;6.00;;
28158;SDS011;15447;50.828;4.406;2023-10-08T14:18:48;13.32;;;5.90;;
28158;SDS011;15447;50.828;4.406;2023-10-08T14:21:18;12.30;;;6.40;;
28158;SDS011;15447;50.828;4.406;2023-10-08T14:23:48;13.07;;;5.80;;
28158;SDS011;15447;50.828;4.406;2023-10-08T14:26:22;12.52;;;5.65;;
28158;SDS011;15447;50.828;4.406;2023-10-08T14:28:48;14.32;;;5.20;;
28158;SDS011;15447;50.828;4.406;2023-10-08T14:31:23;11.63;;;5.70;;
28158;SDS011;15447;50.828;4.406;2023-10-08T14:33:51;12.40;;;5.80;;
28158;SDS011;15447;50.828;4.406;2023-10-08T14:36:24;10.45;;;5.38;;
28158;SDS011;15447;50.828;4.406;2023-10-08T14:39:10;11.07;;;4.93;;
28158;SDS011;15447;50.828;4.406;2023-10-08T14:42:14;11.98;;;5.47;;
28158;SDS011;15447;50.828;4.406;2023-10-08T14:44:59;10.57;;;5.43;;
28158;SDS011;15447;50.828;4.406;2023-10-08T14:47:26;10.18;;;5.15;;
28158;SDS011;15447;50.828;4.406;2023-10-08T14:49:52;10.82;;;5.32;;
28158;SDS011;15447;50.828;4.406;2023-10-08T14:52:18;9.13;;;5.68;;
28158;SDS011;15447;50.828;4.406;2023-10-08T14:54:44;11.13;;;5.38;;
28158;SDS011;15447;50.828;4.406;2023-10-08T14:57:12;10.07;;;5.38;;
28158;SDS011;15447;50.828;4.406;2023-10-08T14:59:39;8.63;;;5.22;;
28158;SDS011;15447;50.828;4.406;2023-10-08T15:02:06;11.55;;;6.07;;
28158;SDS011;15447;50.828;4.406;2023-10-08T15:04:32;10.60;;;5.90;;
28158;SDS011;15447;50.828;4.406;2023-10-08T15:07:03;11.02;;;5.82;;
28158;SDS011;15447;50.828;4.406;2023-10-08T15:09:29;11.90;;;5.63;;
28158;SDS011;15447;50.828;4.406;2023-10-08T15:11:58;12.63;;;6.18;;
28158;SDS011;15447;50.828;4.406;2023-10-08T15:14:24;10.90;;;5.82;;
28158;SDS011;15447;50.828;4.406;2023-10-08T15:16:52;11.07;;;5.90;;
28158;SDS011;15447;50.828;4.406;2023-10-08T15:19:26;16.92;;;5.72;;
28158;SDS011;15447;50.828;4.406;2023-10-08T15:21:52;10.27;;;5.60;;
28158;SDS011;15447;50.828;4.406;2023-10-08T15:24:18;8.38;;;4.88;;
28158;SDS011;15447;50.828;4.406;2023-10-08T15:26:46;13.30;;;5.88;;
28158;SDS011;15447;50.828;4.406;2023-10-08T15:29:17;11.55;;;5.80;;
28158;SDS011;15447;50.828;4.406;2023-10-08T15:31:52;12.35;;;5.45;;
28158;SDS011;15447;50.828;4.406;2023-10-08T15:34:19;13.40;;;5.40;;
28158;SDS011;15447;50.828;4.406;2023-10-08T15:36:54;9.17;;;5.23;;
28158;SDS011;15447;50.828;4.406;2023-10-08T15:39:21;12.60;;;5.50;;
28158;SDS011;15447;50.828;4.406;2023-10-08T15:41:52;11.27;;;5.47;;
28158;SDS011;15447;50.828;4.406;2023-10-08T15:44:18;9.75;;;4.80;;
28158;SDS011;15447;50.828;4.406;2023-10-08T15:46:47;11.07;;;5.35;;
28158;SDS011;15447;50.828;4.406;2023-10-08T15:49:15;12.38;;;5.13;;
28158;SDS011;15447;50.828;4.406;2023-10-08T15:51:44;12.80;;;5.90;;
28158;SDS011;15447;50.828;4.406;2023-10-08T15:54:11;12.45;;;6.05;;
28158;SDS011;15447;50.828;4.406;2023-10-08T15:56:45;13.02;;;5.50;;
28158;SDS011;15447;50.828;4.406;2023-10-08T15:59:11;11.73;;;5.57;;
28158;SDS011;15447;50.828;4.406;2023-10-08T16:01:36;9.02;;;5.45;;
28158;SDS011;15447;50.828;4.406;2023-10-08T16:04:02;14.18;;;5.45;;
28158;SDS011;15447;50.828;4.406;2023-10-08T16:06:29;9.73;;;5.38;;
28158;SDS011;15447;50.828;4.406;2023-10-08T16:08:55;10.05;;;5.45;;
28158;SDS011;15447;50.828;4.406;2023-10-08T16:11:27;12.45;;;5.28;;
28158;SDS011;15447;50.828;4.406;2023-10-08T16:13:59;12.23;;;5.63;;
28158;SDS011;15447;50.828;4.406;2023-10-08T16:16:25;11.93;;;5.63;;
28158;SDS011;15447;50.828;4.406;2023-10-08T16:18:51;15.50;;;6.85;;
28158;SDS011;15447;50.828;4.406;2023-10-08T16:21:16;14.93;;;6.45;;
28158;SDS011;15447;50.828;4.406;2023-10-08T16:23:45;14.35;;;6.05;;
28158;SDS011;15447;50.828;4.406;2023-10-08T16:26:12;16.27;;;6.43;;
28158;SDS011;15447;50.828;4.406;2023-10-08T16:28:38;14.05;;;6.03;;
28158;SDS011;15447;50.828;4.406;2023-10-08T16:31:04;13.38;;;6.35;;
28158;SDS011;15447;50.828;4.406;2023-10-08T16:33:31;11.23;;;5.40;;
28158;SDS011;15447;50.828;4.406;2023-10-08T16:35:57;15.57;;;8.05;;
28158;SDS011;15447;50.828;4.406;2023-10-08T16:38:24;21.08;;;8.10;;
28158;SDS011;15447;50.828;4.406;2023-10-08T16:40:50;11.43;;;5.72;;
28158;SDS011;15447;50.828;4.406;2023-10-08T16:43:15;13.93;;;6.32;;
28158;SDS011;15447;50.828;4.406;2023-10-08T16:45:44;11.30;;;5.75;;
28158;SDS011;15447;50.828;4.406;2023-10-08T16:48:10;15.82;;;6.70;;
28158;SDS011;15447;50.828;4.406;2023-10-08T16:50:42;18.33;;;6.63;;
28158;SDS011;15447;50.828;4.406;2023-10-08T16:53:08;10.48;;;6.18;;
28158;SDS011;15447;50.828;4.406;2023-10-08T16:55:34;15.80;;;6.30;;
28158;SDS011;15447;50.828;4.406;2023-10-08T16:58:00;12.70;;;6.10;;
28158;SDS011;15447;50.828;4.406;2023-10-08T17:00:27;12.65;;;5.65;;
28158;SDS011;15447;50.828;4.406;2023-10-08T17:02:57;10.93;;;5.65;;
28158;SDS011;15447;50.828;4.406;2023-10-08T17:05:32;13.02;;;5.95;;
28158;SDS011;15447;50.828;4.406;2023-10-08T17:07:58;14.68;;;6.05;;
28158;SDS011;15447;50.828;4.406;2023-10-08T17:10:23;14.82;;;6.72;;
28158;SDS011;15447;50.828;4.406;2023-10-08T17:12:54;12.82;;;6.00;;
28158;SDS011;15447;50.828;4.406;2023-10-08T17:15:21;13.82;;;6.13;;
28158;SDS011;15447;50.828;4.406;2023-10-08T17:17:48;10.63;;;5.13;;
28158;SDS011;15447;50.828;4.406;2023-10-08T17:20:13;11.45;;;5.60;;
28158;SDS011;15447;50.828;4.406;2023-10-08T17:22:43;14.13;;;5.38;;
28158;SDS011;15447;50.828;4.406;2023-10-08T17:25:09;14.23;;;6.75;;
28158;SDS011;15447;50.828;4.406;2023-10-08T17:27:35;13.75;;;7.22;;
28158;SDS011;15447;50.828;4.406;2023-10-08T17:30:02;19.55;;;7.45;;
28158;SDS011;15447;50.828;4.406;2023-10-08T17:32:31;12.10;;;6.35;;
28158;SDS011;15447;50.828;4.406;2023-10-08T17:34:58;15.43;;;6.97;;
28158;SDS011;15447;50.828;4.406;2023-10-08T17:37:24;16.40;;;6.88;;
28158;SDS011;15447;50.828;4.406;2023-10-08T17:39:50;15.93;;;7.45;;
28158;SDS011;15447;50.828;4.406;2023-10-08T17:42:16;17.10;;;6.85;;
28158;SDS011;15447;50.828;4.406;2023-10-08T17:44:42;16.35;;;7.82;;
28158;SDS011;15447;50.828;4.406;2023-10-08T17:47:07;15.18;;;7.43;;
28158;SDS011;15447;50.828;4.406;2023-10-08T17:49:35;14.60;;;6.68;;
28158;SDS011;15447;50.828;4.406;2023-10-08T17:52:02;18.83;;;8.00;;
28158;SDS011;15447;50.828;4.406;2023-10-08T17:54:30;18.42;;;7.80;;
28158;SDS011;15447;50.828;4.406;2023-10-08T17:56:58;16.25;;;7.97;;
28158;SDS011;15447;50.828;4.406;2023-10-08T17:59:24;13.73;;;7.90;;
28158;SDS011;15447;50.828;4.406;2023-10-08T18:01:51;16.25;;;7.88;;
28158;SDS011;15447;50.828;4.406;2023-10-08T18:04:17;15.48;;;8.13;;
28158;SDS011;15447;50.828;4.406;2023-10-08T18:06:46;16.08;;;8.65;;
28158;SDS011;15447;50.828;4.406;2023-10-08T18:09:12;21.25;;;8.68;;
28158;SDS011;15447;50.828;4.406;2023-10-08T18:11:38;16.90;;;8.57;;
28158;SDS011;15447;50.828;4.406;2023-10-08T18:14:07;17.92;;;8.20;;
28158;SDS011;15447;50.828;4.406;2023-10-08T18:16:36;18.63;;;9.40;;
28158;SDS011;15447;50.828;4.406;2023-10-08T18:19:08;17.03;;;8.87;;
28158;SDS011;15447;50.828;4.406;2023-10-08T18:21:35;21.38;;;10.32;;
28158;SDS011;15447;50.828;4.406;2023-10-08T18:24:05;17.02;;;9.63;;
28158;SDS011;15447;50.828;4.406;2023-10-08T18:26:32;18.80;;;9.80;;
28158;SDS011;15447;50.828;4.406;2023-10-08T18:28:58;15.88;;;9.13;;
28158;SDS011;15447;50.828;4.406;2023-10-08T18:31:24;15.05;;;9.25;;
28158;SDS011;15447;50.828;4.406;2023-10-08T18:33:51;16.60;;;9.23;;
28158;SDS011;15447;50.828;4.406;2023-10-08T18:36:17;17.08;;;8.88;;
28158;SDS011;15447;50.828;4.406;2023-10-08T18:38:43;21.20;;;8.95;;
28158;SDS011;15447;50.828;4.406;2023-10-08T18:41:09;16.77;;;8.68;;
28158;SDS011;15447;50.828;4.406;2023-10-08T18:43:40;15.88;;;8.88;;
28158;SDS011;15447;50.828;4.406;2023-10-08T18:46:06;15.25;;;8.52;;
28158;SDS011;15447;50.828;4.406;2023-10-08T18:48:38;17.15;;;8.57;;
28158;SDS011;15447;50.828;4.406;2023-10-08T18:51:04;15.32;;;8.02;;
28158;SDS011;15447;50.828;4.406;2023-10-08T18:53:35;16.60;;;7.85;;
28158;SDS011;15447;50.828;4.406;2023-10-08T18:56:07;14.75;;;7.97;;
28158;SDS011;15447;50.828;4.406;2023-10-08T18:58:37;16.25;;;7.55;;
28158;SDS011;15447;50.828;4.406;2023-10-08T19:01:04;17.50;;;6.82;;
28158;SDS011;15447;50.828;4.406;2023-10-08T19:03:31;12.95;;;6.90;;
28158;SDS011;15447;50.828;4.406;2023-10-08T19:05:58;14.85;;;6.72;;
28158;SDS011;15447;50.828;4.406;2023-10-08T19:08:25;13.90;;;7.45;;
28158;SDS011;15447;50.828;4.406;2023-10-08T19:10:51;13.43;;;6.68;;
28158;SDS011;15447;50.828;4.406;2023-10-08T19:13:18;13.13;;;6.47;;
28158;SDS011;15447;50.828;4.406;2023-10-08T19:15:44;16.35;;;6.55;;
28158;SDS011;15447;50.828;4.406;2023-10-08T19:18:10;16.77;;;6.90;;
28158;SDS011;15447;50.828;4.406;2023-10-08T19:20:36;14.88;;;6.75;;
28158;SDS011;15447;50.828;4.406;2023-10-08T19:23:03;16.48;;;7.85;;
28158;SDS011;15447;50.828;4.406;2023-10-08T19:25:30;13.85;;;6.95;;
28158;SDS011;15447;50.828;4.406;2023-10-08T19:27:56;13.35;;;7.20;;
28158;SDS011;15447;50.828;4.406;2023-10-08T19:30:24;15.05;;;7.32;;
28158;SDS011;15447;50.828;4.406;2023-10-08T19:32:50;17.95;;;6.75;;
28158;SDS011;15447;50.828;4.406;2023-10-08T19:35:16;23.15;;;6.13;;
28158;SDS011;15447;50.828;4.406;2023-10-08T19:37:46;14.30;;;6.63;;
28158;SDS011;15447;50.828;4.406;2023-10-08T19:40:12;11.60;;;6.10;;
28158;SDS011;15447;50.828;4.406;2023-10-08T19:42:41;12.38;;;6.38;;
28158;SDS011;15447;50.828;4.406;2023-10-08T19:45:10;13.65;;;7.13;;
28158;SDS011;15447;50.828;4.406;2023-10-08T19:47:40;12.30;;;6.63;;
28158;SDS011;15447;50.828;4.406;2023-10-08T19:50:07;12.73;;;6.95;;
28158;SDS011;15447;50.828;4.406;2023-10-08T19:52:35;17.13;;;7.45;;
28158;SDS011;15447;50.828;4.406;2023-10-08T19:55:07;18.17;;;6.88;;
28158;SDS011;15447;50.828;4.406;2023-10-08T19:57:34;14.88;;;7.15;;
28158;SDS011;15447;50.828;4.406;2023-10-08T20:00:08;13.57;;;6.53;;
28158;SDS011;15447;50.828;4.406;2023-10-08T20:02:42;13.27;;;6.85;;
28158;SDS011;15447;50.828;4.406;2023-10-08T20:05:12;13.88;;;7.03;;
28158;SDS011;15447;50.828;4.406;2023-10-08T20:07:41;15.27;;;7.53;;
28158;SDS011;15447;50.828;4.406;2023-10-08T20:10:09;29.02;;;14.77;;
28158;SDS011;15447;50.828;4.406;2023-10-08T20:12:47;23.70;;;13.00;;
28158;SDS011;15447;50.828;4.406;2023-10-08T20:15:53;13.02;;;6.90;;
28158;SDS011;15447;50.828;4.406;2023-10-08T20:18:24;16.30;;;7.68;;
28158;SDS011;15447;50.828;4.406;2023-10-08T20:24:19;13.88;;;7.88;;
28158;SDS011;15447;50.828;4.406;2023-10-08T20:30:16;15.77;;;7.18;;
28158;SDS011;15447;50.828;4.406;2023-10-08T20:33:11;17.98;;;7.70;;
28158;SDS011;15447;50.828;4.406;2023-10-08T20:39:20;11.82;;;6.25;;
28158;SDS011;15447;50.828;4.406;2023-10-08T20:42:15;18.92;;;6.90;;
28158;SDS011;15447;50.828;4.406;2023-10-08T20:45:06;14.88;;;7.93;;
28158;SDS011;15447;50.828;4.406;2023-10-08T20:48:02;18.02;;;8.27;;
28158;SDS011;15447;50.828;4.406;2023-10-08T20:50:42;17.88;;;7.35;;
28158;SDS011;15447;50.828;4.406;2023-10-08T20:54:02;14.27;;;6.60;;
28158;SDS011;15447;50.828;4.406;2023-10-08T20:56:54;12.82;;;6.07;;
28158;SDS011;15447;50.828;4.406;2023-10-08T20:59:34;14.90;;;6.38;;
28158;SDS011;15447;50.828;4.406;2023-10-08T21:02:12;14.93;;;7.38;;
28158;SDS011;15447;50.828;4.406;2023-10-08T21:04:40;15.30;;;6.63;;
28158;SDS011;15447;50.828;4.406;2023-10-08T21:07:09;12.93;;;6.55;;
28158;SDS011;15447;50.828;4.406;2023-10-08T21:10:07;13.60;;;7.03;;